sensor_id;sensor_type;location;lat;lon;timestamp;pressure;altitude;pressure_sealevel;temperature;humidity
40596;BME280;26304;48.794;9.820;2023-07-13T00:01:59;96337.63;;;23.75;51.73
40596;BME280;26304;48.794;9.820;2023-07-13T00:07:43;96330.22;;;23.67;52.23
40596;BME280;26304;48.794;9.820;2023-07-13T00:13:28;96315.31;;;23.73;51.86
40596;BME280;26304;48.794;9.820;2023-07-13T00:19:11;96316.13;;;23.70;51.90
40596;BME280;26304;48.794;9.820;2023-07-13T00:24:55;96321.63;;;23.59;51.86
40596;BME280;26304;48.794;9.820;2023-07-13T00:30:37;96336.44;;;23.56;51.29
40596;BME280;26304;48.794;9.820;2023-07-13T00:36:20;96329.19;;;23.61;51.08
40596;BME280;26304;48.794;9.820;2023-07-13T00:42:05;96338.47;;;23.49;51.17
40596;BME280;26304;48.794;9.820;2023-07-13T00:47:47;96335.03;;;23.25;50.68
40596;BME280;26304;48.794;9.820;2023-07-13T00:53:32;96353.59;;;23.25;50.32
40596;BME280;26304;48.794;9.820;2023-07-13T00:59:18;96351.75;;;23.21;50.29
40596;BME280;26304;48.794;9.820;2023-07-13T01:05:08;96348.91;;;23.36;50.18
40596;BME280;26304;48.794;9.820;2023-07-13T01:10:52;96351.13;;;23.10;50.60
40596;BME280;26304;48.794;9.820;2023-07-13T01:16:37;96354.56;;;23.11;50.40
40596;BME280;26304;48.794;9.820;2023-07-13T01:22:23;96361.66;;;23.17;50.41
40596;BME280;26304;48.794;9.820;2023-07-13T01:28:08;96365.16;;;23.11;50.16
40596;BME280;26304;48.794;9.820;2023-07-13T01:33:51;96365.16;;;23.11;49.91
40596;BME280;26304;48.794;9.820;2023-07-13T01:39:35;96367.44;;;23.09;50.19
40596;BME280;26304;48.794;9.820;2023-07-13T01:45:18;96366.19;;;22.90;50.37
40596;BME280;26304;48.794;9.820;2023-07-13T01:51:01;96355.13;;;22.95;50.08
40596;BME280;26304;48.794;9.820;2023-07-13T01:56:44;96360.06;;;22.93;49.79
40596;BME280;26304;48.794;9.820;2023-07-13T02:02:27;96365.47;;;22.85;49.93
40596;BME280;26304;48.794;9.820;2023-07-13T02:08:09;96357.16;;;22.83;49.86
40596;BME280;26304;48.794;9.820;2023-07-13T02:13:53;96376.97;;;22.75;50.15
40596;BME280;26304;48.794;9.820;2023-07-13T02:19:35;96381.22;;;22.65;50.51
40596;BME280;26304;48.794;9.820;2023-07-13T02:25:18;96379.34;;;22.66;50.79
40596;BME280;26304;48.794;9.820;2023-07-13T02:31:10;96383.25;;;22.54;51.10
40596;BME280;26304;48.794;9.820;2023-07-13T02:36:53;96386.16;;;21.84;52.59
40596;BME280;26304;48.794;9.820;2023-07-13T02:42:35;96385.63;;;21.58;52.75
40596;BME280;26304;48.794;9.820;2023-07-13T02:48:19;96377.28;;;21.59;52.75
40596;BME280;26304;48.794;9.820;2023-07-13T02:54:02;96372.91;;;21.31;53.42
40596;BME280;26304;48.794;9.820;2023-07-13T02:59:45;96365.81;;;21.21;53.77
40596;BME280;26304;48.794;9.820;2023-07-13T03:05:28;96383.56;;;21.24;54.04
40596;BME280;26304;48.794;9.820;2023-07-13T03:11:13;96385.88;;;21.15;54.48
40596;BME280;26304;48.794;9.820;2023-07-13T03:16:56;96385.16;;;21.03;54.60
40596;BME280;26304;48.794;9.820;2023-07-13T03:22:39;96387.47;;;20.94;54.29
40596;BME280;26304;48.794;9.820;2023-07-13T03:28:22;96393.56;;;20.88;54.50
40596;BME280;26304;48.794;9.820;2023-07-13T03:34:05;96400.41;;;20.63;54.75
40596;BME280;26304;48.794;9.820;2023-07-13T03:39:49;96402.69;;;20.68;55.04
40596;BME280;26304;48.794;9.820;2023-07-13T03:45:31;96413.63;;;20.67;54.99
40596;BME280;26304;48.794;9.820;2023-07-13T03:51:16;96421.88;;;20.80;54.62
40596;BME280;26304;48.794;9.820;2023-07-13T03:57:00;96426.47;;;20.68;55.06
40596;BME280;26304;48.794;9.820;2023-07-13T04:02:42;96422.66;;;20.73;54.91
40596;BME280;26304;48.794;9.820;2023-07-13T04:08:25;96423.44;;;20.66;54.91
40596;BME280;26304;48.794;9.820;2023-07-13T04:14:08;96431.00;;;20.57;55.05
40596;BME280;26304;48.794;9.820;2023-07-13T04:19:52;96434.75;;;20.60;55.14
40596;BME280;26304;48.794;9.820;2023-07-13T04:25:34;96435.50;;;20.67;55.02
40596;BME280;26304;48.794;9.820;2023-07-13T04:31:19;96440.41;;;20.73;55.32
40596;BME280;26304;48.794;9.820;2023-07-13T04:37:01;96434.31;;;20.90;54.56
40596;BME280;26304;48.794;9.820;2023-07-13T04:42:44;96448.25;;;21.01;53.80
40596;BME280;26304;48.794;9.820;2023-07-13T04:48:28;96443.00;;;20.91;54.00
40596;BME280;26304;48.794;9.820;2023-07-13T04:54:10;96449.09;;;20.73;54.00
40596;BME280;26304;48.794;9.820;2023-07-13T04:59:52;96441.91;;;20.81;53.94
40596;BME280;26304;48.794;9.820;2023-07-13T05:05:36;96443.41;;;20.78;53.51
40596;BME280;26304;48.794;9.820;2023-07-13T05:11:19;96445.66;;;20.80;54.71
40596;BME280;26304;48.794;9.820;2023-07-13T05:17:01;96450.94;;;20.80;54.35
40596;BME280;26304;48.794;9.820;2023-07-13T05:22:45;96454.00;;;20.71;54.64
40596;BME280;26304;48.794;9.820;2023-07-13T05:28:30;96459.25;;;20.82;54.52
40596;BME280;26304;48.794;9.820;2023-07-13T05:34:13;96456.28;;;20.73;54.63
40596;BME280;26304;48.794;9.820;2023-07-13T05:39:57;96454.00;;;20.67;54.13
40596;BME280;26304;48.794;9.820;2023-07-13T05:45:40;96455.13;;;20.70;54.51
40596;BME280;26304;48.794;9.820;2023-07-13T05:51:23;96458.53;;;20.63;53.97
40596;BME280;26304;48.794;9.820;2023-07-13T05:57:06;96461.56;;;20.65;53.88
40596;BME280;26304;48.794;9.820;2023-07-13T06:02:49;96473.91;;;20.97;52.88
40596;BME280;26304;48.794;9.820;2023-07-13T06:08:31;96472.66;;;21.31;52.53
40596;BME280;26304;48.794;9.820;2023-07-13T06:14:15;96482.41;;;21.45;51.64
40596;BME280;26304;48.794;9.820;2023-07-13T06:19:57;96487.03;;;21.26;52.11
40596;BME280;26304;48.794;9.820;2023-07-13T06:25:40;96490.34;;;21.45;51.88
40596;BME280;26304;48.794;9.820;2023-07-13T06:31:23;96489.16;;;21.56;51.67
40596;BME280;26304;48.794;9.820;2023-07-13T06:37:06;96500.50;;;21.57;51.98
40596;BME280;26304;48.794;9.820;2023-07-13T06:42:49;96511.41;;;21.66;51.67
40596;BME280;26304;48.794;9.820;2023-07-13T06:48:32;96513.00;;;21.53;51.54
40596;BME280;26304;48.794;9.820;2023-07-13T06:54:15;96520.41;;;21.80;50.62
40596;BME280;26304;48.794;9.820;2023-07-13T06:59:57;96523.91;;;21.62;51.17
40596;BME280;26304;48.794;9.820;2023-07-13T07:05:41;96517.09;;;21.65;51.24
40596;BME280;26304;48.794;9.820;2023-07-13T07:11:25;96523.78;;;21.84;50.91
40596;BME280;26304;48.794;9.820;2023-07-13T07:17:08;96542.69;;;21.82;50.68
40596;BME280;26304;48.794;9.820;2023-07-13T07:22:51;96543.50;;;21.68;50.97
40596;BME280;26304;48.794;9.820;2023-07-13T07:28:34;96545.75;;;21.77;50.99
40596;BME280;26304;48.794;9.820;2023-07-13T07:34:16;96541.22;;;21.77;50.91
40596;BME280;26304;48.794;9.820;2023-07-13T07:40:00;96540.50;;;21.66;50.79
40596;BME280;26304;48.794;9.820;2023-07-13T07:45:44;96544.97;;;21.80;50.64
40596;BME280;26304;48.794;9.820;2023-07-13T07:51:27;96550.22;;;21.87;50.44
40596;BME280;26304;48.794;9.820;2023-07-13T07:57:11;96557.09;;;21.77;50.66
40596;BME280;26304;48.794;9.820;2023-07-13T08:02:53;96547.19;;;21.89;50.77
40596;BME280;26304;48.794;9.820;2023-07-13T08:08:36;96547.53;;;21.94;50.13
40596;BME280;26304;48.794;9.820;2023-07-13T08:14:20;96544.09;;;22.01;49.93
40596;BME280;26304;48.794;9.820;2023-07-13T08:20:04;96544.72;;;22.20;49.73
40596;BME280;26304;48.794;9.820;2023-07-13T08:25:51;96549.22;;;22.30;49.21
40596;BME280;26304;48.794;9.820;2023-07-13T08:31:35;96561.38;;;22.20;48.50
40596;BME280;26304;48.794;9.820;2023-07-13T08:37:17;96553.75;;;22.33;48.59
40596;BME280;26304;48.794;9.820;2023-07-13T08:43:00;96556.69;;;22.42;47.83
40596;BME280;26304;48.794;9.820;2023-07-13T08:48:47;96558.91;;;22.47;46.71
40596;BME280;26304;48.794;9.820;2023-07-13T08:54:34;96559.69;;;22.44;45.60
40596;BME280;26304;48.794;9.820;2023-07-13T09:00:18;96567.34;;;22.35;44.91
40596;BME280;26304;48.794;9.820;2023-07-13T09:06:02;96563.09;;;22.48;44.46
40596;BME280;26304;48.794;9.820;2023-07-13T09:11:50;96568.66;;;22.61;44.50
40596;BME280;26304;48.794;9.820;2023-07-13T09:17:41;96567.91;;;22.61;44.65
40596;BME280;26304;48.794;9.820;2023-07-13T09:23:30;96574.66;;;22.69;44.87
40596;BME280;26304;48.794;9.820;2023-07-13T09:29:17;96568.91;;;22.74;44.69
40596;BME280;26304;48.794;9.820;2023-07-13T09:35:09;96571.44;;;22.89;44.39
40596;BME280;26304;48.794;9.820;2023-07-13T09:41:02;96565.19;;;22.68;42.85
40596;BME280;26304;48.794;9.820;2023-07-13T09:46:52;96573.56;;;22.63;42.73
40596;BME280;26304;48.794;9.820;2023-07-13T09:52:40;96575.94;;;22.92;42.60
40596;BME280;26304;48.794;9.820;2023-07-13T09:58:27;96568.19;;;22.70;42.33
40596;BME280;26304;48.794;9.820;2023-07-13T10:04:14;96573.22;;;22.99;42.58
40596;BME280;26304;48.794;9.820;2023-07-13T10:10:00;96566.66;;;23.14;42.27
40596;BME280;26304;48.794;9.820;2023-07-13T10:15:45;96572.63;;;23.22;42.09
40596;BME280;26304;48.794;9.820;2023-07-13T10:21:32;96577.22;;;23.18;41.40
40596;BME280;26304;48.794;9.820;2023-07-13T10:27:18;96587.09;;;23.17;41.69
40596;BME280;26304;48.794;9.820;2023-07-13T10:33:10;96583.28;;;23.18;40.38
40596;BME280;26304;48.794;9.820;2023-07-13T10:38:53;96574.81;;;23.31;40.71
40596;BME280;26304;48.794;9.820;2023-07-13T10:44:37;96570.06;;;23.15;41.51
40596;BME280;26304;48.794;9.820;2023-07-13T10:50:23;96571.91;;;23.21;39.50
40596;BME280;26304;48.794;9.820;2023-07-13T10:56:20;96561.41;;;23.11;40.26
40596;BME280;26304;48.794;9.820;2023-07-13T11:02:13;96561.19;;;23.29;40.82
40596;BME280;26304;48.794;9.820;2023-07-13T11:08:13;96557.34;;;23.33;40.73
40596;BME280;26304;48.794;9.820;2023-07-13T11:13:59;96556.69;;;23.26;42.18
40596;BME280;26304;48.794;9.820;2023-07-13T11:19:51;96549.06;;;23.28;40.83
40596;BME280;26304;48.794;9.820;2023-07-13T11:25:36;96546.00;;;23.33;40.63
40596;BME280;26304;48.794;9.820;2023-07-13T11:31:20;96555.44;;;23.34;41.19
40596;BME280;26304;48.794;9.820;2023-07-13T11:37:10;96546.38;;;23.62;40.93
40596;BME280;26304;48.794;9.820;2023-07-13T11:43:00;96537.28;;;23.63;41.24
40596;BME280;26304;48.794;9.820;2023-07-13T11:48:44;96543.69;;;23.35;41.15
40596;BME280;26304;48.794;9.820;2023-07-13T11:54:30;96538.78;;;23.64;40.47
40596;BME280;26304;48.794;9.820;2023-07-13T12:00:17;96549.25;;;23.75;41.22
40596;BME280;26304;48.794;9.820;2023-07-13T12:06:03;96535.53;;;23.80;41.05
40596;BME280;26304;48.794;9.820;2023-07-13T12:11:46;96533.53;;;23.61;41.13
40596;BME280;26304;48.794;9.820;2023-07-13T12:17:30;96539.22;;;23.59;40.80
40596;BME280;26304;48.794;9.820;2023-07-13T12:23:21;96537.22;;;23.67;40.70
40596;BME280;26304;48.794;9.820;2023-07-13T12:29:06;96539.59;;;23.88;40.47
40596;BME280;26304;48.794;9.820;2023-07-13T12:34:55;96540.06;;;23.83;40.96
40596;BME280;26304;48.794;9.820;2023-07-13T12:40:38;96536.88;;;23.96;40.44
40596;BME280;26304;48.794;9.820;2023-07-13T12:46:24;96536.47;;;23.97;41.03
40596;BME280;26304;48.794;9.820;2023-07-13T12:52:15;96534.00;;;24.10;41.38
40596;BME280;26304;48.794;9.820;2023-07-13T12:58:03;96518.69;;;23.94;41.30
40596;BME280;26304;48.794;9.820;2023-07-13T13:03:49;96528.66;;;23.86;41.43
40596;BME280;26304;48.794;9.820;2023-07-13T13:09:34;96533.25;;;23.82;41.23
40596;BME280;26304;48.794;9.820;2023-07-13T13:15:16;96533.97;;;23.86;41.44
40596;BME280;26304;48.794;9.820;2023-07-13T13:20:58;96522.63;;;23.82;40.92
40596;BME280;26304;48.794;9.820;2023-07-13T13:26:44;96524.84;;;23.87;41.38
40596;BME280;26304;48.794;9.820;2023-07-13T13:32:27;96516.38;;;23.96;41.30
40596;BME280;26304;48.794;9.820;2023-07-13T13:38:11;96520.97;;;24.19;40.51
40596;BME280;26304;48.794;9.820;2023-07-13T13:43:56;96514.91;;;23.91;41.16
40596;BME280;26304;48.794;9.820;2023-07-13T13:49:39;96525.31;;;24.06;40.57
40596;BME280;26304;48.794;9.820;2023-07-13T13:55:21;96516.13;;;24.14;40.92
40596;BME280;26304;48.794;9.820;2023-07-13T14:01:12;96528.44;;;24.01;41.25
40596;BME280;26304;48.794;9.820;2023-07-13T14:06:55;96520.22;;;23.91;41.36
40596;BME280;26304;48.794;9.820;2023-07-13T14:12:37;96513.47;;;23.87;41.00
40596;BME280;26304;48.794;9.820;2023-07-13T14:18:21;96513.44;;;23.90;41.17
40596;BME280;26304;48.794;9.820;2023-07-13T14:24:05;96520.13;;;23.99;40.67
40596;BME280;26304;48.794;9.820;2023-07-13T14:29:47;96519.41;;;23.94;41.12
40596;BME280;26304;48.794;9.820;2023-07-13T14:35:31;96512.25;;;23.91;40.63
40596;BME280;26304;48.794;9.820;2023-07-13T14:41:26;96515.91;;;24.01;41.02
40596;BME280;26304;48.794;9.820;2023-07-13T14:47:09;96517.13;;;23.97;41.02
40596;BME280;26304;48.794;9.820;2023-07-13T14:52:54;96516.75;;;23.94;40.68
40596;BME280;26304;48.794;9.820;2023-07-13T14:58:36;96515.34;;;24.14;40.50
40596;BME280;26304;48.794;9.820;2023-07-13T15:04:22;96520.94;;;23.96;40.82
40596;BME280;26304;48.794;9.820;2023-07-13T15:10:13;96517.06;;;24.00;40.07
40596;BME280;26304;48.794;9.820;2023-07-13T15:15:56;96520.88;;;23.99;39.84
40596;BME280;26304;48.794;9.820;2023-07-13T15:21:38;96517.81;;;24.01;39.87
40596;BME280;26304;48.794;9.820;2023-07-13T15:27:22;96519.38;;;23.98;39.72
40596;BME280;26304;48.794;9.820;2023-07-13T15:33:11;96515.56;;;23.99;39.92
40596;BME280;26304;48.794;9.820;2023-07-13T15:38:55;96517.72;;;24.08;40.37
40596;BME280;26304;48.794;9.820;2023-07-13T15:44:39;96527.16;;;24.13;39.82
40596;BME280;26304;48.794;9.820;2023-07-13T15:50:23;96509.84;;;24.01;39.03
40596;BME280;26304;48.794;9.820;2023-07-13T15:56:19;96513.56;;;24.07;38.07
40596;BME280;26304;48.794;9.820;2023-07-13T16:02:12;96509.66;;;23.88;38.21
40596;BME280;26304;48.794;9.820;2023-07-13T16:07:55;96520.88;;;23.99;37.91
40596;BME280;26304;48.794;9.820;2023-07-13T16:13:38;96517.66;;;24.11;38.14
40596;BME280;26304;48.794;9.820;2023-07-13T16:19:22;96517.31;;;24.09;38.43
40596;BME280;26304;48.794;9.820;2023-07-13T16:25:17;96510.16;;;24.30;38.24
40596;BME280;26304;48.794;9.820;2023-07-13T16:31:00;96515.88;;;24.28;38.86
40596;BME280;26304;48.794;9.820;2023-07-13T16:36:44;96516.69;;;24.25;38.92
40596;BME280;26304;48.794;9.820;2023-07-13T16:42:27;96532.16;;;24.30;38.82
40596;BME280;26304;48.794;9.820;2023-07-13T16:48:13;96540.66;;;24.45;38.94
40596;BME280;26304;48.794;9.820;2023-07-13T16:53:58;96542.34;;;24.59;38.86
40596;BME280;26304;48.794;9.820;2023-07-13T16:59:41;96532.44;;;24.36;39.33
40596;BME280;26304;48.794;9.820;2023-07-13T17:05:24;96532.50;;;24.33;38.27
40596;BME280;26304;48.794;9.820;2023-07-13T17:11:08;96533.63;;;24.35;38.12
40596;BME280;26304;48.794;9.820;2023-07-13T17:16:52;96523.16;;;24.24;37.47
40596;BME280;26304;48.794;9.820;2023-07-13T17:22:35;96528.94;;;24.19;37.62
40596;BME280;26304;48.794;9.820;2023-07-13T17:28:19;96537.06;;;24.32;38.22
40596;BME280;26304;48.794;9.820;2023-07-13T17:34:02;96540.19;;;24.27;38.26
40596;BME280;26304;48.794;9.820;2023-07-13T17:39:46;96536.44;;;24.24;37.83
40596;BME280;26304;48.794;9.820;2023-07-13T17:45:31;96534.94;;;24.23;37.62
40596;BME280;26304;48.794;9.820;2023-07-13T17:51:15;96536.91;;;24.19;37.80
40596;BME280;26304;48.794;9.820;2023-07-13T17:56:58;96541.63;;;24.08;37.71
40596;BME280;26304;48.794;9.820;2023-07-13T18:02:42;96545.56;;;24.23;37.71
40596;BME280;26304;48.794;9.820;2023-07-13T18:08:27;96554.44;;;24.13;38.10
40596;BME280;26304;48.794;9.820;2023-07-13T18:14:11;96553.38;;;24.34;38.48
40596;BME280;26304;48.794;9.820;2023-07-13T18:19:55;96556.41;;;24.33;37.80
40596;BME280;26304;48.794;9.820;2023-07-13T18:25:37;96559.88;;;24.29;37.58
40596;BME280;26304;48.794;9.820;2023-07-13T18:31:22;96564.50;;;24.25;37.47
40596;BME280;26304;48.794;9.820;2023-07-13T18:37:14;96565.31;;;24.22;37.74
40596;BME280;26304;48.794;9.820;2023-07-13T18:42:59;96577.03;;;24.25;37.90
40596;BME280;26304;48.794;9.820;2023-07-13T18:48:42;96574.34;;;24.28;37.79
40596;BME280;26304;48.794;9.820;2023-07-13T18:54:25;96578.94;;;24.24;37.92
40596;BME280;26304;48.794;9.820;2023-07-13T19:00:09;96579.34;;;23.96;38.37
40596;BME280;26304;48.794;9.820;2023-07-13T19:05:52;96591.56;;;23.89;38.39
40596;BME280;26304;48.794;9.820;2023-07-13T19:11:36;96592.31;;;23.90;38.59
40596;BME280;26304;48.794;9.820;2023-07-13T19:17:18;96593.88;;;23.87;38.00
40596;BME280;26304;48.794;9.820;2023-07-13T19:23:03;96604.19;;;23.78;38.96
40596;BME280;26304;48.794;9.820;2023-07-13T19:28:50;96610.59;;;23.84;39.27
40596;BME280;26304;48.794;9.820;2023-07-13T19:34:34;96618.03;;;23.97;39.59
40596;BME280;26304;48.794;9.820;2023-07-13T19:40:19;96622.72;;;23.85;39.59
40596;BME280;26304;48.794;9.820;2023-07-13T19:46:04;96639.06;;;23.80;39.47
40596;BME280;26304;48.794;9.820;2023-07-13T19:51:46;96648.53;;;23.50;39.94
40596;BME280;26304;48.794;9.820;2023-07-13T19:57:29;96647.50;;;23.37;40.17
40596;BME280;26304;48.794;9.820;2023-07-13T20:03:13;96657.91;;;23.58;40.11
40596;BME280;26304;48.794;9.820;2023-07-13T20:08:56;96656.88;;;23.49;40.08
40596;BME280;26304;48.794;9.820;2023-07-13T20:14:38;96670.28;;;23.34;40.11
40596;BME280;26304;48.794;9.820;2023-07-13T20:20:27;96671.53;;;23.23;40.31
40596;BME280;26304;48.794;9.820;2023-07-13T20:26:11;96676.53;;;23.13;40.11
40596;BME280;26304;48.794;9.820;2023-07-13T20:31:54;96673.88;;;23.13;40.35
40596;BME280;26304;48.794;9.820;2023-07-13T20:37:38;96682.63;;;23.07;40.51
40596;BME280;26304;48.794;9.820;2023-07-13T20:43:23;96682.63;;;23.07;40.77
40596;BME280;26304;48.794;9.820;2023-07-13T20:49:05;96687.28;;;22.92;41.03
40596;BME280;26304;48.794;9.820;2023-07-13T20:54:49;96693.31;;;22.96;41.54
40596;BME280;26304;48.794;9.820;2023-07-13T21:00:32;96693.72;;;22.91;41.22
40596;BME280;26304;48.794;9.820;2023-07-13T21:06:16;96691.94;;;22.80;41.51
40596;BME280;26304;48.794;9.820;2023-07-13T21:12:00;96694.28;;;22.67;41.72
40596;BME280;26304;48.794;9.820;2023-07-13T21:17:43;96693.47;;;22.74;41.45
40596;BME280;26304;48.794;9.820;2023-07-13T21:23:28;96693.91;;;22.69;41.97
40596;BME280;26304;48.794;9.820;2023-07-13T21:29:13;96701.94;;;22.55;42.34
40596;BME280;26304;48.794;9.820;2023-07-13T21:34:55;96700.47;;;22.46;42.64
40596;BME280;26304;48.794;9.820;2023-07-13T21:40:39;96695.59;;;22.38;43.44
40596;BME280;26304;48.794;9.820;2023-07-13T21:46:28;96692.94;;;22.38;44.29
40596;BME280;26304;48.794;9.820;2023-07-13T21:52:15;96700.16;;;22.34;44.52
40596;BME280;26304;48.794;9.820;2023-07-13T21:57:58;96700.56;;;22.25;44.75
40596;BME280;26304;48.794;9.820;2023-07-13T22:03:42;96703.94;;;22.25;45.18
40596;BME280;26304;48.794;9.820;2023-07-13T22:09:24;96710.47;;;22.10;44.92
40596;BME280;26304;48.794;9.820;2023-07-13T22:15:09;96710.50;;;21.99;44.31
40596;BME280;26304;48.794;9.820;2023-07-13T22:20:53;96712.78;;;22.01;44.36
40596;BME280;26304;48.794;9.820;2023-07-13T22:26:35;96706.72;;;22.00;44.86
40596;BME280;26304;48.794;9.820;2023-07-13T22:32:18;96720.72;;;21.93;45.22
40596;BME280;26304;48.794;9.820;2023-07-13T22:38:02;96721.88;;;21.92;45.31
40596;BME280;26304;48.794;9.820;2023-07-13T22:43:50;96710.59;;;21.70;45.93
40596;BME280;26304;48.794;9.820;2023-07-13T22:49:36;96709.44;;;21.79;45.71
40596;BME280;26304;48.794;9.820;2023-07-13T22:55:20;96714.34;;;21.84;46.34
40596;BME280;26304;48.794;9.820;2023-07-13T23:01:02;96714.38;;;21.76;46.60
40596;BME280;26304;48.794;9.820;2023-07-13T23:06:46;96715.91;;;21.70;46.10
40596;BME280;26304;48.794;9.820;2023-07-13T23:12:34;96703.81;;;21.62;46.69
40596;BME280;26304;48.794;9.820;2023-07-13T23:18:17;96704.16;;;21.71;46.22
40596;BME280;26304;48.794;9.820;2023-07-13T23:24:00;96703.06;;;21.65;46.33
40596;BME280;26304;48.794;9.820;2023-07-13T23:29:44;96693.59;;;21.57;46.37
40596;BME280;26304;48.794;9.820;2023-07-13T23:35:27;96688.34;;;21.46;47.32
40596;BME280;26304;48.794;9.820;2023-07-13T23:41:10;96684.94;;;21.38;47.24
40596;BME280;26304;48.794;9.820;2023-07-13T23:46:54;96684.59;;;21.26;47.75
40596;BME280;26304;48.794;9.820;2023-07-13T23:52:37;96686.06;;;21.34;47.42
40596;BME280;26304;48.794;9.820;2023-07-13T23:58:19;96682.69;;;21.37;47.80
